Guild, TN (37340)

11:00 PM CDT on September 02, 2014 (GMT -0500)
New Home | Change Station
CLOSE
Current Station
Personal Weather Station
Location: Trenton, GA
Elevation: 1470 ft
Nearby Weather Stations

Elev 1470 ft 34.98 °N, 85.51 °W | Updated 7 minutes ago

Mostly Cloudy
Mostly Cloudy
74.2 °F
Feels Like 72 °F
N
0.0
Wind Variable Wind from NW
Gusts 1.0 mph

Today
High -- | Low -- °F
--% Chance of Precip.
Yesterday
High -- | Low -- °F
Precip. -- in
6:15 AM 7:07 PM
First Quarter, 58% visible
Pressure 30.04 in
Visibility 3.0 miles
Clouds Mostly Cloudy 3400 ft
Mostly Cloudy 4400 ft
Overcast 5000 ft
Heat Index 72 °F
Dew Point 72 °F
Humidity 91%
Rainfall 0.00 in
Snow Depth Not available.
UV 0 out of 12
Pollen 9.60 out of 12
Ozone Good
PM2.5 Moderate
Flu Activity Not available.
METAR KCHA 030353Z 12006KT 3SM -TSRA BR BKN034CB BKN044 OVC050 23/21 A3006 RMK AO2 SLP172 LAST FRQ LTGIC NE-E TS NE-E MOV E P0020 T02330211

More Conditions Fewer Conditions

Pressure 30.04 in
Visibility 3.0 miles
Clouds Mostly Cloudy 3400 ft
Mostly Cloudy 4400 ft
Overcast 5000 ft
Heat Index 72 °F
Dew Point 72 °F
Humidity 91%
Rainfall 0.00 in
Snow Depth Not available.
UV 0 out of 12
Pollen 9.60 out of 12
Ozone Good
PM2.5 Moderate
Flu Activity Not available.
METAR KCHA 030353Z 12006KT 3SM -TSRA BR BKN034CB BKN044 OVC050 23/21 A3006 RMK AO2 SLP172 LAST FRQ LTGIC NE-E TS NE-E MOV E P0020 T02330211

More Conditions Fewer Conditions

10-Day Weather Forecast

Almanac

Astronomy

Sep. 02, 2014 Rise Set
Actual Time 6:15 AM CDT 7:07 PM CDT
Civil Twilight 5:49 AM CDT 7:33 PM CDT
Nautical Twilight 5:19 AM CDT 8:03 PM CDT
Astronomical Twilight 4:47 AM CDT 8:34 PM CDT
Moon 1:42 PM CDT (9/2) No Moon Set
Length of Visible Light 13h 43m
Length of Day
12h 51m
Tomorrow will be 2m 7s shorter.
First Quarter, 58% of the Moon is Illuminated
Sep 3
First Quarter
Sep 8
Full
Sep 15
Last Quarter
Sep 24
New
Oct 1
First Quarter

Today's Extremes

State Highs State Lows

Community

WunderPhotos

Upload Photos

1,749,866 photos uploaded!

Nearby

Air Quality

  Air Quality AQ Index Pollutant
Yesterday Moderate
PM2.5
Yesterday Good
OZONE
Current Moderate
PM2.5
Current Good
OZONE
Tuesday Moderate
PM2.5
Tuesday Good
OZONE
Wednesday Good
PM2.5
Wednesday Good
OZONE
Thursday Moderate
PM2.5
Thursday Moderate
OZONE

Snow Depth

Station Depth Elevation
No new snow has been reported.

Earthquake Activity

City Distance Mag. Time & Date
No recent earthquake activity has been reported nearby.
Minimum magnitude displayed is 2.5.

Coastal Water Temperatures

Place Temperature
No Stations Reporting

Nearby Weather Stations